Terminal Aerodrome Forecast
Issued by NWS

Home | Current Version | Previous Version | Text Only | Print | Product List | Glossary Off
Versions: 1 2 3 4 5 6 7 8 9 10 11 12 13

000
FTUS43 KIWX 222330
TAFSBN
TAF
KSBN 222330Z 2300/2324 33007KT P6SM FEW008 SCT070
      TEMPO 2300/2304 BKN008
     FM230700 00000KT 4SM BR FEW008 SCT045
     FM231100 00000KT 2SM BR SCT008 BKN020
     FM231300 00000KT P6SM SCT008 BKN025
     FM231600 00000KT P6SM SCT020 BKN250=

USA.gov is the U.S. government's official web portal to all federal, state and local government web resources and services.